sensor_id;sensor_type;location;lat;lon;timestamp;P1;durP1;ratioP1;P2;durP2;ratioP2
5785;SDS011;2919;48.630;9.000;2023-07-24T00:01:15;10.67;;;3.80;;
5785;SDS011;2919;48.630;9.000;2023-07-24T00:03:42;6.23;;;3.50;;
5785;SDS011;2919;48.630;9.000;2023-07-24T00:06:07;9.73;;;3.60;;
5785;SDS011;2919;48.630;9.000;2023-07-24T00:08:33;8.40;;;3.80;;
5785;SDS011;2919;48.630;9.000;2023-07-24T00:10:59;7.67;;;4.00;;
5785;SDS011;2919;48.630;9.000;2023-07-24T00:13:24;11.60;;;5.13;;
5785;SDS011;2919;48.630;9.000;2023-07-24T00:15:50;10.40;;;3.43;;
5785;SDS011;2919;48.630;9.000;2023-07-24T00:18:16;8.43;;;3.37;;
5785;SDS011;2919;48.630;9.000;2023-07-24T00:20:42;10.43;;;4.47;;
5785;SDS011;2919;48.630;9.000;2023-07-24T00:23:07;8.13;;;4.03;;
5785;SDS011;2919;48.630;9.000;2023-07-24T00:25:33;9.73;;;4.80;;
5785;SDS011;2919;48.630;9.000;2023-07-24T00:27:58;7.90;;;3.57;;
5785;SDS011;2919;48.630;9.000;2023-07-24T00:30:24;13.40;;;3.77;;
5785;SDS011;2919;48.630;9.000;2023-07-24T00:32:50;16.07;;;3.70;;
5785;SDS011;2919;48.630;9.000;2023-07-24T00:35:15;6.97;;;3.20;;
5785;SDS011;2919;48.630;9.000;2023-07-24T00:37:41;8.97;;;3.57;;
5785;SDS011;2919;48.630;9.000;2023-07-24T00:40:06;12.53;;;4.67;;
5785;SDS011;2919;48.630;9.000;2023-07-24T00:42:32;7.50;;;3.30;;
5785;SDS011;2919;48.630;9.000;2023-07-24T00:44:58;6.73;;;3.37;;
5785;SDS011;2919;48.630;9.000;2023-07-24T00:47:25;9.20;;;3.83;;
5785;SDS011;2919;48.630;9.000;2023-07-24T00:49:51;8.10;;;3.43;;
5785;SDS011;2919;48.630;9.000;2023-07-24T00:52:18;8.33;;;3.70;;
5785;SDS011;2919;48.630;9.000;2023-07-24T00:54:44;6.87;;;3.03;;
5785;SDS011;2919;48.630;9.000;2023-07-24T00:57:11;8.40;;;3.20;;
5785;SDS011;2919;48.630;9.000;2023-07-24T00:59:37;9.63;;;3.73;;
5785;SDS011;2919;48.630;9.000;2023-07-24T01:02:03;11.27;;;4.17;;
5785;SDS011;2919;48.630;9.000;2023-07-24T01:04:29;8.27;;;4.37;;
5785;SDS011;2919;48.630;9.000;2023-07-24T01:06:54;9.63;;;3.20;;
5785;SDS011;2919;48.630;9.000;2023-07-24T01:09:20;8.17;;;4.60;;
5785;SDS011;2919;48.630;9.000;2023-07-24T01:11:46;7.03;;;2.60;;
5785;SDS011;2919;48.630;9.000;2023-07-24T01:16:47;10.17;;;3.80;;
5785;SDS011;2919;48.630;9.000;2023-07-24T01:27:42;11.40;;;4.67;;
5785;SDS011;2919;48.630;9.000;2023-07-24T01:30:09;9.83;;;4.17;;
5785;SDS011;2919;48.630;9.000;2023-07-24T01:32:35;7.00;;;3.30;;
5785;SDS011;2919;48.630;9.000;2023-07-24T01:35:02;8.67;;;3.97;;
5785;SDS011;2919;48.630;9.000;2023-07-24T01:37:29;9.50;;;3.90;;
5785;SDS011;2919;48.630;9.000;2023-07-24T01:39:55;6.93;;;3.30;;
5785;SDS011;2919;48.630;9.000;2023-07-24T01:42:22;9.30;;;4.07;;
5785;SDS011;2919;48.630;9.000;2023-07-24T01:44:53;5.73;;;3.07;;
5785;SDS011;2919;48.630;9.000;2023-07-24T01:47:19;11.67;;;4.53;;
5785;SDS011;2919;48.630;9.000;2023-07-24T01:49:45;6.60;;;3.67;;
5785;SDS011;2919;48.630;9.000;2023-07-24T01:52:11;8.00;;;4.27;;
5785;SDS011;2919;48.630;9.000;2023-07-24T01:54:36;9.50;;;3.47;;
5785;SDS011;2919;48.630;9.000;2023-07-24T01:57:02;11.00;;;4.77;;
5785;SDS011;2919;48.630;9.000;2023-07-24T01:59:28;9.87;;;3.83;;
5785;SDS011;2919;48.630;9.000;2023-07-24T02:01:53;9.93;;;4.40;;
5785;SDS011;2919;48.630;9.000;2023-07-24T02:04:19;8.30;;;3.70;;
5785;SDS011;2919;48.630;9.000;2023-07-24T02:06:47;6.40;;;3.50;;
5785;SDS011;2919;48.630;9.000;2023-07-24T02:09:14;8.20;;;4.30;;
5785;SDS011;2919;48.630;9.000;2023-07-24T02:11:40;13.37;;;4.60;;
5785;SDS011;2919;48.630;9.000;2023-07-24T02:14:05;8.47;;;3.40;;
5785;SDS011;2919;48.630;9.000;2023-07-24T02:16:31;9.20;;;4.20;;
5785;SDS011;2919;48.630;9.000;2023-07-24T02:18:57;14.53;;;5.20;;
5785;SDS011;2919;48.630;9.000;2023-07-24T02:21:22;8.00;;;3.80;;
5785;SDS011;2919;48.630;9.000;2023-07-24T02:23:48;11.67;;;3.50;;
5785;SDS011;2919;48.630;9.000;2023-07-24T02:26:13;8.90;;;4.13;;
5785;SDS011;2919;48.630;9.000;2023-07-24T02:28:39;13.57;;;4.00;;
5785;SDS011;2919;48.630;9.000;2023-07-24T02:31:04;7.30;;;3.67;;
5785;SDS011;2919;48.630;9.000;2023-07-24T02:33:30;9.00;;;3.97;;
5785;SDS011;2919;48.630;9.000;2023-07-24T02:35:56;7.83;;;3.40;;
5785;SDS011;2919;48.630;9.000;2023-07-24T02:38:21;11.03;;;4.53;;
5785;SDS011;2919;48.630;9.000;2023-07-24T02:40:47;10.67;;;4.40;;
5785;SDS011;2919;48.630;9.000;2023-07-24T02:43:13;8.60;;;3.57;;
5785;SDS011;2919;48.630;9.000;2023-07-24T02:45:38;8.70;;;4.87;;
5785;SDS011;2919;48.630;9.000;2023-07-24T02:48:04;8.30;;;4.23;;
5785;SDS011;2919;48.630;9.000;2023-07-24T02:50:30;9.70;;;4.00;;
5785;SDS011;2919;48.630;9.000;2023-07-24T02:52:56;8.97;;;4.20;;
5785;SDS011;2919;48.630;9.000;2023-07-24T02:55:21;13.27;;;4.13;;
5785;SDS011;2919;48.630;9.000;2023-07-24T02:57:47;10.17;;;4.77;;
5785;SDS011;2919;48.630;9.000;2023-07-24T03:00:12;11.97;;;4.50;;
5785;SDS011;2919;48.630;9.000;2023-07-24T03:02:38;7.83;;;4.20;;
5785;SDS011;2919;48.630;9.000;2023-07-24T03:05:04;10.10;;;4.60;;
5785;SDS011;2919;48.630;9.000;2023-07-24T03:07:31;8.40;;;3.93;;
5785;SDS011;2919;48.630;9.000;2023-07-24T03:09:57;11.00;;;3.70;;
5785;SDS011;2919;48.630;9.000;2023-07-24T03:12:22;7.53;;;3.53;;
5785;SDS011;2919;48.630;9.000;2023-07-24T03:14:48;7.90;;;3.40;;
5785;SDS011;2919;48.630;9.000;2023-07-24T03:17:14;9.60;;;4.27;;
5785;SDS011;2919;48.630;9.000;2023-07-24T03:19:40;7.80;;;3.47;;
5785;SDS011;2919;48.630;9.000;2023-07-24T03:22:06;11.23;;;4.47;;
5785;SDS011;2919;48.630;9.000;2023-07-24T03:24:33;7.20;;;3.47;;
5785;SDS011;2919;48.630;9.000;2023-07-24T03:26:59;8.43;;;4.17;;
5785;SDS011;2919;48.630;9.000;2023-07-24T03:29:25;8.90;;;3.73;;
5785;SDS011;2919;48.630;9.000;2023-07-24T03:31:51;8.90;;;4.37;;
5785;SDS011;2919;48.630;9.000;2023-07-24T03:34:17;15.07;;;3.80;;
5785;SDS011;2919;48.630;9.000;2023-07-24T03:36:42;7.87;;;3.93;;
5785;SDS011;2919;48.630;9.000;2023-07-24T03:39:11;8.73;;;4.30;;
5785;SDS011;2919;48.630;9.000;2023-07-24T03:41:37;8.87;;;4.07;;
5785;SDS011;2919;48.630;9.000;2023-07-24T03:44:03;12.70;;;4.50;;
5785;SDS011;2919;48.630;9.000;2023-07-24T03:46:29;10.70;;;4.17;;
5785;SDS011;2919;48.630;9.000;2023-07-24T03:48:56;12.13;;;4.10;;
5785;SDS011;2919;48.630;9.000;2023-07-24T03:51:22;7.63;;;3.70;;
5785;SDS011;2919;48.630;9.000;2023-07-24T03:53:47;8.23;;;5.10;;
5785;SDS011;2919;48.630;9.000;2023-07-24T03:56:13;10.10;;;3.77;;
5785;SDS011;2919;48.630;9.000;2023-07-24T03:58:38;10.07;;;4.50;;
5785;SDS011;2919;48.630;9.000;2023-07-24T04:01:04;7.13;;;3.80;;
5785;SDS011;2919;48.630;9.000;2023-07-24T04:03:30;8.10;;;4.60;;
5785;SDS011;2919;48.630;9.000;2023-07-24T04:05:56;11.83;;;3.90;;
5785;SDS011;2919;48.630;9.000;2023-07-24T04:08:22;11.43;;;4.10;;
5785;SDS011;2919;48.630;9.000;2023-07-24T04:10:47;8.70;;;3.70;;
5785;SDS011;2919;48.630;9.000;2023-07-24T04:13:13;8.80;;;4.07;;
5785;SDS011;2919;48.630;9.000;2023-07-24T04:15:38;15.87;;;4.80;;
5785;SDS011;2919;48.630;9.000;2023-07-24T04:18:04;10.40;;;4.47;;
5785;SDS011;2919;48.630;9.000;2023-07-24T04:20:30;11.00;;;3.93;;
5785;SDS011;2919;48.630;9.000;2023-07-24T04:22:56;7.40;;;3.50;;
5785;SDS011;2919;48.630;9.000;2023-07-24T04:25:21;8.53;;;3.83;;
5785;SDS011;2919;48.630;9.000;2023-07-24T04:27:47;7.27;;;3.57;;
5785;SDS011;2919;48.630;9.000;2023-07-24T04:30:13;12.30;;;4.37;;
5785;SDS011;2919;48.630;9.000;2023-07-24T04:32:38;8.93;;;3.93;;
5785;SDS011;2919;48.630;9.000;2023-07-24T04:35:04;10.50;;;5.00;;
5785;SDS011;2919;48.630;9.000;2023-07-24T04:37:30;11.17;;;3.80;;
5785;SDS011;2919;48.630;9.000;2023-07-24T04:39:56;8.47;;;4.10;;
5785;SDS011;2919;48.630;9.000;2023-07-24T04:42:21;9.70;;;5.10;;
5785;SDS011;2919;48.630;9.000;2023-07-24T04:44:47;12.00;;;4.83;;
5785;SDS011;2919;48.630;9.000;2023-07-24T04:47:15;7.27;;;3.47;;
5785;SDS011;2919;48.630;9.000;2023-07-24T04:49:40;12.70;;;4.57;;
5785;SDS011;2919;48.630;9.000;2023-07-24T04:52:06;9.90;;;4.90;;
5785;SDS011;2919;48.630;9.000;2023-07-24T04:54:31;6.77;;;3.27;;
5785;SDS011;2919;48.630;9.000;2023-07-24T04:56:57;11.70;;;4.10;;
5785;SDS011;2919;48.630;9.000;2023-07-24T04:59:23;8.97;;;3.73;;
5785;SDS011;2919;48.630;9.000;2023-07-24T05:01:49;8.93;;;3.87;;
5785;SDS011;2919;48.630;9.000;2023-07-24T05:04:14;9.70;;;4.03;;
5785;SDS011;2919;48.630;9.000;2023-07-24T05:06:40;6.63;;;3.27;;
5785;SDS011;2919;48.630;9.000;2023-07-24T05:09:06;11.33;;;4.00;;
5785;SDS011;2919;48.630;9.000;2023-07-24T05:11:31;10.53;;;4.70;;
5785;SDS011;2919;48.630;9.000;2023-07-24T05:13:57;9.10;;;4.00;;
5785;SDS011;2919;48.630;9.000;2023-07-24T05:16:23;11.20;;;4.37;;
5785;SDS011;2919;48.630;9.000;2023-07-24T05:18:48;10.77;;;3.77;;
5785;SDS011;2919;48.630;9.000;2023-07-24T05:21:14;7.13;;;3.97;;
5785;SDS011;2919;48.630;9.000;2023-07-24T05:23:39;10.57;;;3.90;;
5785;SDS011;2919;48.630;9.000;2023-07-24T05:26:05;9.00;;;4.27;;
5785;SDS011;2919;48.630;9.000;2023-07-24T05:28:31;12.47;;;4.50;;
5785;SDS011;2919;48.630;9.000;2023-07-24T05:31:04;14.60;;;4.47;;
5785;SDS011;2919;48.630;9.000;2023-07-24T05:33:30;11.70;;;4.00;;
5785;SDS011;2919;48.630;9.000;2023-07-24T05:35:57;6.83;;;3.63;;
5785;SDS011;2919;48.630;9.000;2023-07-24T05:38:24;9.30;;;3.90;;
5785;SDS011;2919;48.630;9.000;2023-07-24T05:41:00;9.30;;;3.93;;
5785;SDS011;2919;48.630;9.000;2023-07-24T05:43:27;10.83;;;3.47;;
5785;SDS011;2919;48.630;9.000;2023-07-24T05:45:53;10.40;;;5.10;;
5785;SDS011;2919;48.630;9.000;2023-07-24T05:48:20;14.00;;;4.20;;
5785;SDS011;2919;48.630;9.000;2023-07-24T05:50:46;8.20;;;3.83;;
5785;SDS011;2919;48.630;9.000;2023-07-24T05:53:12;9.80;;;3.67;;
5785;SDS011;2919;48.630;9.000;2023-07-24T05:55:38;11.60;;;5.40;;
5785;SDS011;2919;48.630;9.000;2023-07-24T05:58:04;13.00;;;4.33;;
5785;SDS011;2919;48.630;9.000;2023-07-24T06:00:30;10.90;;;4.23;;
5785;SDS011;2919;48.630;9.000;2023-07-24T06:02:55;9.30;;;4.43;;
5785;SDS011;2919;48.630;9.000;2023-07-24T06:05:21;9.80;;;4.27;;
5785;SDS011;2919;48.630;9.000;2023-07-24T06:07:47;8.97;;;4.70;;
5785;SDS011;2919;48.630;9.000;2023-07-24T06:10:13;10.80;;;4.67;;
5785;SDS011;2919;48.630;9.000;2023-07-24T06:12:38;10.97;;;4.27;;
5785;SDS011;2919;48.630;9.000;2023-07-24T06:15:04;12.70;;;4.80;;
5785;SDS011;2919;48.630;9.000;2023-07-24T06:17:31;9.83;;;3.70;;
5785;SDS011;2919;48.630;9.000;2023-07-24T06:19:57;8.60;;;4.73;;
5785;SDS011;2919;48.630;9.000;2023-07-24T06:22:23;7.70;;;4.10;;
5785;SDS011;2919;48.630;9.000;2023-07-24T06:24:48;9.30;;;4.40;;
5785;SDS011;2919;48.630;9.000;2023-07-24T06:27:14;13.40;;;5.10;;
5785;SDS011;2919;48.630;9.000;2023-07-24T06:29:40;10.80;;;5.20;;
5785;SDS011;2919;48.630;9.000;2023-07-24T06:32:06;8.40;;;4.20;;
5785;SDS011;2919;48.630;9.000;2023-07-24T06:34:32;9.00;;;4.20;;
5785;SDS011;2919;48.630;9.000;2023-07-24T06:36:58;9.60;;;4.63;;
5785;SDS011;2919;48.630;9.000;2023-07-24T06:39:23;11.07;;;5.00;;
5785;SDS011;2919;48.630;9.000;2023-07-24T06:41:51;11.70;;;5.40;;
5785;SDS011;2919;48.630;9.000;2023-07-24T06:44:17;19.87;;;5.43;;
5785;SDS011;2919;48.630;9.000;2023-07-24T06:46:42;7.33;;;3.90;;
5785;SDS011;2919;48.630;9.000;2023-07-24T06:49:08;12.60;;;4.83;;
5785;SDS011;2919;48.630;9.000;2023-07-24T06:51:35;10.63;;;5.07;;
5785;SDS011;2919;48.630;9.000;2023-07-24T06:54:00;10.60;;;4.33;;
5785;SDS011;2919;48.630;9.000;2023-07-24T06:56:26;12.17;;;4.50;;
5785;SDS011;2919;48.630;9.000;2023-07-24T06:58:51;7.20;;;4.27;;
5785;SDS011;2919;48.630;9.000;2023-07-24T07:01:18;9.57;;;5.60;;
5785;SDS011;2919;48.630;9.000;2023-07-24T07:03:43;17.00;;;5.40;;
5785;SDS011;2919;48.630;9.000;2023-07-24T07:06:09;9.57;;;4.53;;
5785;SDS011;2919;48.630;9.000;2023-07-24T07:08:36;12.33;;;5.17;;
5785;SDS011;2919;48.630;9.000;2023-07-24T07:11:02;11.03;;;4.40;;
5785;SDS011;2919;48.630;9.000;2023-07-24T07:13:27;15.10;;;4.27;;
5785;SDS011;2919;48.630;9.000;2023-07-24T07:15:53;11.13;;;5.40;;
5785;SDS011;2919;48.630;9.000;2023-07-24T07:18:19;8.73;;;4.13;;
5785;SDS011;2919;48.630;9.000;2023-07-24T07:20:47;9.50;;;4.37;;
5785;SDS011;2919;48.630;9.000;2023-07-24T07:23:14;16.93;;;5.30;;
5785;SDS011;2919;48.630;9.000;2023-07-24T07:25:40;18.83;;;4.97;;
5785;SDS011;2919;48.630;9.000;2023-07-24T07:28:08;13.83;;;4.70;;
5785;SDS011;2919;48.630;9.000;2023-07-24T07:30:34;5.93;;;3.90;;
5785;SDS011;2919;48.630;9.000;2023-07-24T07:32:59;14.33;;;4.87;;
5785;SDS011;2919;48.630;9.000;2023-07-24T07:35:25;15.30;;;4.70;;
5785;SDS011;2919;48.630;9.000;2023-07-24T07:37:51;10.27;;;4.77;;
5785;SDS011;2919;48.630;9.000;2023-07-24T07:40:17;10.13;;;4.80;;
5785;SDS011;2919;48.630;9.000;2023-07-24T07:42:42;7.67;;;3.70;;
5785;SDS011;2919;48.630;9.000;2023-07-24T07:45:10;12.27;;;5.00;;
5785;SDS011;2919;48.630;9.000;2023-07-24T07:47:36;11.07;;;4.83;;
5785;SDS011;2919;48.630;9.000;2023-07-24T07:50:01;7.83;;;4.03;;
5785;SDS011;2919;48.630;9.000;2023-07-24T07:52:27;11.23;;;5.00;;
5785;SDS011;2919;48.630;9.000;2023-07-24T07:54:53;10.30;;;4.40;;
5785;SDS011;2919;48.630;9.000;2023-07-24T07:57:18;8.77;;;4.30;;
5785;SDS011;2919;48.630;9.000;2023-07-24T07:59:44;13.27;;;5.00;;
5785;SDS011;2919;48.630;9.000;2023-07-24T08:02:10;15.80;;;5.83;;
5785;SDS011;2919;48.630;9.000;2023-07-24T08:04:35;9.93;;;4.67;;
5785;SDS011;2919;48.630;9.000;2023-07-24T08:07:01;9.50;;;3.90;;
5785;SDS011;2919;48.630;9.000;2023-07-24T08:09:27;11.70;;;5.53;;
5785;SDS011;2919;48.630;9.000;2023-07-24T08:11:53;13.50;;;5.07;;
5785;SDS011;2919;48.630;9.000;2023-07-24T08:14:19;11.93;;;5.13;;
5785;SDS011;2919;48.630;9.000;2023-07-24T08:16:44;9.63;;;4.90;;
5785;SDS011;2919;48.630;9.000;2023-07-24T08:19:12;11.37;;;3.80;;
5785;SDS011;2919;48.630;9.000;2023-07-24T08:21:38;10.50;;;4.17;;
5785;SDS011;2919;48.630;9.000;2023-07-24T08:24:05;7.00;;;3.50;;
5785;SDS011;2919;48.630;9.000;2023-07-24T08:26:31;8.30;;;4.20;;
5785;SDS011;2919;48.630;9.000;2023-07-24T08:28:56;8.97;;;3.43;;
5785;SDS011;2919;48.630;9.000;2023-07-24T08:31:22;12.43;;;4.20;;
5785;SDS011;2919;48.630;9.000;2023-07-24T08:33:47;8.60;;;3.80;;
5785;SDS011;2919;48.630;9.000;2023-07-24T08:36:13;9.50;;;3.57;;
5785;SDS011;2919;48.630;9.000;2023-07-24T08:38:39;9.97;;;3.73;;
5785;SDS011;2919;48.630;9.000;2023-07-24T08:41:07;8.63;;;4.53;;
5785;SDS011;2919;48.630;9.000;2023-07-24T08:43:35;10.80;;;4.07;;
5785;SDS011;2919;48.630;9.000;2023-07-24T08:46:01;16.30;;;4.20;;
5785;SDS011;2919;48.630;9.000;2023-07-24T08:48:46;7.43;;;3.80;;
5785;SDS011;2919;48.630;9.000;2023-07-24T08:51:12;8.50;;;3.43;;
5785;SDS011;2919;48.630;9.000;2023-07-24T08:53:42;14.83;;;3.23;;
5785;SDS011;2919;48.630;9.000;2023-07-24T08:56:09;5.90;;;3.00;;
5785;SDS011;2919;48.630;9.000;2023-07-24T08:58:35;8.23;;;3.20;;
5785;SDS011;2919;48.630;9.000;2023-07-24T09:01:02;5.43;;;3.07;;
5785;SDS011;2919;48.630;9.000;2023-07-24T09:03:28;15.43;;;2.73;;
5785;SDS011;2919;48.630;9.000;2023-07-24T09:05:55;7.80;;;2.43;;
5785;SDS011;2919;48.630;9.000;2023-07-24T09:08:28;4.40;;;2.10;;
5785;SDS011;2919;48.630;9.000;2023-07-24T09:10:58;4.17;;;2.43;;
5785;SDS011;2919;48.630;9.000;2023-07-24T09:13:24;5.90;;;2.30;;
5785;SDS011;2919;48.630;9.000;2023-07-24T09:15:50;8.40;;;2.93;;
5785;SDS011;2919;48.630;9.000;2023-07-24T09:18:16;7.37;;;3.27;;
5785;SDS011;2919;48.630;9.000;2023-07-24T09:20:43;9.70;;;4.67;;
5785;SDS011;2919;48.630;9.000;2023-07-24T09:23:10;6.90;;;3.00;;
5785;SDS011;2919;48.630;9.000;2023-07-24T09:25:37;7.47;;;2.77;;
5785;SDS011;2919;48.630;9.000;2023-07-24T09:28:10;7.80;;;3.73;;
5785;SDS011;2919;48.630;9.000;2023-07-24T09:30:37;5.83;;;2.27;;
5785;SDS011;2919;48.630;9.000;2023-07-24T09:33:03;9.43;;;3.00;;
5785;SDS011;2919;48.630;9.000;2023-07-24T09:35:30;7.27;;;3.67;;
5785;SDS011;2919;48.630;9.000;2023-07-24T09:38:06;7.83;;;2.87;;
5785;SDS011;2919;48.630;9.000;2023-07-24T09:43:18;6.37;;;3.27;;
5785;SDS011;2919;48.630;9.000;2023-07-24T09:45:52;8.80;;;4.10;;
5785;SDS011;2919;48.630;9.000;2023-07-24T09:48:19;4.97;;;2.90;;
5785;SDS011;2919;48.630;9.000;2023-07-24T09:50:47;4.10;;;2.30;;
5785;SDS011;2919;48.630;9.000;2023-07-24T09:56:05;6.77;;;3.20;;
5785;SDS011;2919;48.630;9.000;2023-07-24T09:58:32;10.07;;;3.30;;
5785;SDS011;2919;48.630;9.000;2023-07-24T10:01:00;14.80;;;4.07;;
5785;SDS011;2919;48.630;9.000;2023-07-24T10:03:31;8.47;;;4.40;;
5785;SDS011;2919;48.630;9.000;2023-07-24T10:06:00;7.17;;;3.50;;
5785;SDS011;2919;48.630;9.000;2023-07-24T10:08:26;6.67;;;2.87;;
5785;SDS011;2919;48.630;9.000;2023-07-24T10:10:52;9.60;;;3.27;;
5785;SDS011;2919;48.630;9.000;2023-07-24T10:13:18;9.10;;;3.73;;
5785;SDS011;2919;48.630;9.000;2023-07-24T10:15:46;6.40;;;2.53;;
5785;SDS011;2919;48.630;9.000;2023-07-24T10:18:15;13.90;;;4.00;;
5785;SDS011;2919;48.630;9.000;2023-07-24T10:20:42;7.00;;;3.43;;
5785;SDS011;2919;48.630;9.000;2023-07-24T10:23:08;7.43;;;3.77;;
5785;SDS011;2919;48.630;9.000;2023-07-24T10:25:36;11.50;;;3.17;;
5785;SDS011;2919;48.630;9.000;2023-07-24T10:28:06;7.40;;;3.80;;
5785;SDS011;2919;48.630;9.000;2023-07-24T10:30:36;12.00;;;4.60;;
5785;SDS011;2919;48.630;9.000;2023-07-24T10:33:03;10.73;;;3.53;;
5785;SDS011;2919;48.630;9.000;2023-07-24T10:38:07;4.77;;;2.90;;
5785;SDS011;2919;48.630;9.000;2023-07-24T10:40:34;8.50;;;3.60;;
5785;SDS011;2919;48.630;9.000;2023-07-24T10:43:06;7.30;;;3.90;;
5785;SDS011;2919;48.630;9.000;2023-07-24T10:45:47;6.63;;;3.20;;
5785;SDS011;2919;48.630;9.000;2023-07-24T10:48:17;12.50;;;4.93;;
5785;SDS011;2919;48.630;9.000;2023-07-24T10:50:45;9.47;;;3.90;;
5785;SDS011;2919;48.630;9.000;2023-07-24T10:53:18;9.73;;;4.77;;
5785;SDS011;2919;48.630;9.000;2023-07-24T10:55:45;9.60;;;3.97;;
5785;SDS011;2919;48.630;9.000;2023-07-24T10:58:15;7.47;;;4.07;;
5785;SDS011;2919;48.630;9.000;2023-07-24T11:00:41;5.63;;;3.07;;
5785;SDS011;2919;48.630;9.000;2023-07-24T11:03:09;14.90;;;5.20;;
5785;SDS011;2919;48.630;9.000;2023-07-24T11:05:38;7.20;;;5.00;;
5785;SDS011;2919;48.630;9.000;2023-07-24T11:08:11;10.20;;;4.20;;
5785;SDS011;2919;48.630;9.000;2023-07-24T11:10:47;11.10;;;4.00;;
5785;SDS011;2919;48.630;9.000;2023-07-24T11:13:13;6.17;;;3.63;;
5785;SDS011;2919;48.630;9.000;2023-07-24T11:15:40;6.43;;;3.73;;
5785;SDS011;2919;48.630;9.000;2023-07-24T11:18:05;6.87;;;3.40;;
5785;SDS011;2919;48.630;9.000;2023-07-24T11:20:44;10.23;;;4.07;;
5785;SDS011;2919;48.630;9.000;2023-07-24T11:23:11;11.70;;;4.90;;
5785;SDS011;2919;48.630;9.000;2023-07-24T11:25:37;7.43;;;3.57;;
5785;SDS011;2919;48.630;9.000;2023-07-24T11:28:07;11.27;;;4.57;;
5785;SDS011;2919;48.630;9.000;2023-07-24T11:30:34;8.00;;;4.53;;
5785;SDS011;2919;48.630;9.000;2023-07-24T11:33:01;11.33;;;4.83;;
5785;SDS011;2919;48.630;9.000;2023-07-24T11:35:28;9.43;;;5.20;;
5785;SDS011;2919;48.630;9.000;2023-07-24T11:37:54;8.97;;;5.17;;
5785;SDS011;2919;48.630;9.000;2023-07-24T11:40:19;10.90;;;5.07;;
5785;SDS011;2919;48.630;9.000;2023-07-24T11:42:47;6.90;;;3.67;;
5785;SDS011;2919;48.630;9.000;2023-07-24T11:45:13;8.50;;;4.20;;
5785;SDS011;2919;48.630;9.000;2023-07-24T11:50:11;8.20;;;4.17;;
5785;SDS011;2919;48.630;9.000;2023-07-24T11:52:38;10.10;;;3.83;;
5785;SDS011;2919;48.630;9.000;2023-07-24T11:55:04;13.53;;;4.57;;
5785;SDS011;2919;48.630;9.000;2023-07-24T11:57:31;8.60;;;4.37;;
5785;SDS011;2919;48.630;9.000;2023-07-24T11:59:56;9.77;;;3.67;;
5785;SDS011;2919;48.630;9.000;2023-07-24T12:02:25;10.10;;;3.77;;
5785;SDS011;2919;48.630;9.000;2023-07-24T12:04:55;9.90;;;4.33;;
5785;SDS011;2919;48.630;9.000;2023-07-24T12:07:23;7.37;;;3.60;;
5785;SDS011;2919;48.630;9.000;2023-07-24T12:09:54;8.17;;;3.47;;
5785;SDS011;2919;48.630;9.000;2023-07-24T12:12:19;7.23;;;3.30;;
5785;SDS011;2919;48.630;9.000;2023-07-24T12:14:45;9.53;;;4.53;;
5785;SDS011;2919;48.630;9.000;2023-07-24T12:17:10;6.00;;;3.50;;
5785;SDS011;2919;48.630;9.000;2023-07-24T12:19:39;5.63;;;3.33;;
5785;SDS011;2919;48.630;9.000;2023-07-24T12:22:05;5.90;;;3.37;;
5785;SDS011;2919;48.630;9.000;2023-07-24T12:24:30;8.10;;;3.90;;
5785;SDS011;2919;48.630;9.000;2023-07-24T12:26:56;4.80;;;2.70;;
5785;SDS011;2919;48.630;9.000;2023-07-24T12:29:22;8.43;;;3.20;;
5785;SDS011;2919;48.630;9.000;2023-07-24T12:31:47;5.77;;;3.00;;
5785;SDS011;2919;48.630;9.000;2023-07-24T12:34:13;7.00;;;2.60;;
5785;SDS011;2919;48.630;9.000;2023-07-24T12:36:38;7.07;;;3.30;;
5785;SDS011;2919;48.630;9.000;2023-07-24T12:39:04;5.83;;;3.10;;
5785;SDS011;2919;48.630;9.000;2023-07-24T12:41:29;9.57;;;3.80;;
5785;SDS011;2919;48.630;9.000;2023-07-24T12:43:55;9.00;;;3.33;;
5785;SDS011;2919;48.630;9.000;2023-07-24T12:46:21;5.73;;;2.30;;
5785;SDS011;2919;48.630;9.000;2023-07-24T12:48:46;6.30;;;3.20;;
5785;SDS011;2919;48.630;9.000;2023-07-24T12:51:12;6.50;;;3.03;;
5785;SDS011;2919;48.630;9.000;2023-07-24T12:53:38;8.07;;;3.10;;
5785;SDS011;2919;48.630;9.000;2023-07-24T12:56:03;5.70;;;3.10;;
5785;SDS011;2919;48.630;9.000;2023-07-24T12:58:29;8.17;;;3.73;;
5785;SDS011;2919;48.630;9.000;2023-07-24T13:00:54;5.63;;;3.10;;
5785;SDS011;2919;48.630;9.000;2023-07-24T13:03:20;5.10;;;2.90;;
5785;SDS011;2919;48.630;9.000;2023-07-24T13:05:46;6.67;;;3.10;;
5785;SDS011;2919;48.630;9.000;2023-07-24T13:08:12;5.30;;;3.53;;
5785;SDS011;2919;48.630;9.000;2023-07-24T13:10:38;4.47;;;2.23;;
5785;SDS011;2919;48.630;9.000;2023-07-24T13:13:04;7.43;;;3.57;;
5785;SDS011;2919;48.630;9.000;2023-07-24T13:15:29;6.00;;;3.23;;
5785;SDS011;2919;48.630;9.000;2023-07-24T13:17:57;5.47;;;2.20;;
5785;SDS011;2919;48.630;9.000;2023-07-24T13:20:22;3.80;;;2.13;;
5785;SDS011;2919;48.630;9.000;2023-07-24T13:22:49;6.03;;;2.80;;
5785;SDS011;2919;48.630;9.000;2023-07-24T13:25:16;4.10;;;2.60;;
5785;SDS011;2919;48.630;9.000;2023-07-24T13:27:41;5.73;;;3.00;;
5785;SDS011;2919;48.630;9.000;2023-07-24T13:30:07;7.03;;;2.07;;
5785;SDS011;2919;48.630;9.000;2023-07-24T13:32:33;10.60;;;3.40;;
5785;SDS011;2919;48.630;9.000;2023-07-24T13:34:58;4.90;;;2.63;;
5785;SDS011;2919;48.630;9.000;2023-07-24T13:37:25;7.30;;;2.70;;
5785;SDS011;2919;48.630;9.000;2023-07-24T13:39:51;6.70;;;2.80;;
5785;SDS011;2919;48.630;9.000;2023-07-24T13:42:16;5.07;;;2.60;;
5785;SDS011;2919;48.630;9.000;2023-07-24T13:44:42;4.70;;;2.40;;
5785;SDS011;2919;48.630;9.000;2023-07-24T13:47:08;5.30;;;2.20;;
5785;SDS011;2919;48.630;9.000;2023-07-24T13:49:33;4.50;;;2.60;;
5785;SDS011;2919;48.630;9.000;2023-07-24T13:51:59;6.10;;;2.47;;
5785;SDS011;2919;48.630;9.000;2023-07-24T13:54:25;3.60;;;1.97;;
5785;SDS011;2919;48.630;9.000;2023-07-24T13:56:50;4.80;;;2.50;;
5785;SDS011;2919;48.630;9.000;2023-07-24T13:59:16;6.20;;;1.90;;
5785;SDS011;2919;48.630;9.000;2023-07-24T14:01:41;4.80;;;1.80;;
5785;SDS011;2919;48.630;9.000;2023-07-24T14:04:07;4.60;;;2.10;;
5785;SDS011;2919;48.630;9.000;2023-07-24T14:06:33;5.43;;;2.77;;
5785;SDS011;2919;48.630;9.000;2023-07-24T14:08:58;4.47;;;2.03;;
5785;SDS011;2919;48.630;9.000;2023-07-24T14:11:24;8.60;;;3.10;;
5785;SDS011;2919;48.630;9.000;2023-07-24T14:13:51;4.60;;;2.10;;
5785;SDS011;2919;48.630;9.000;2023-07-24T14:16:17;3.80;;;2.20;;
5785;SDS011;2919;48.630;9.000;2023-07-24T14:18:42;4.60;;;2.30;;
5785;SDS011;2919;48.630;9.000;2023-07-24T14:21:08;7.17;;;2.77;;
5785;SDS011;2919;48.630;9.000;2023-07-24T14:23:34;5.13;;;2.80;;
5785;SDS011;2919;48.630;9.000;2023-07-24T14:26:00;4.77;;;2.40;;
5785;SDS011;2919;48.630;9.000;2023-07-24T14:28:26;3.10;;;1.70;;
5785;SDS011;2919;48.630;9.000;2023-07-24T14:30:51;5.63;;;2.30;;
5785;SDS011;2919;48.630;9.000;2023-07-24T14:33:17;5.00;;;2.50;;
5785;SDS011;2919;48.630;9.000;2023-07-24T14:35:42;8.40;;;2.27;;
5785;SDS011;2919;48.630;9.000;2023-07-24T14:38:08;5.10;;;2.53;;
5785;SDS011;2919;48.630;9.000;2023-07-24T14:40:34;5.57;;;2.10;;
5785;SDS011;2919;48.630;9.000;2023-07-24T14:42:59;5.03;;;2.00;;
5785;SDS011;2919;48.630;9.000;2023-07-24T14:45:25;4.67;;;2.17;;
5785;SDS011;2919;48.630;9.000;2023-07-24T14:47:50;3.60;;;1.93;;
5785;SDS011;2919;48.630;9.000;2023-07-24T14:50:16;4.47;;;2.40;;
5785;SDS011;2919;48.630;9.000;2023-07-24T14:52:42;3.67;;;1.60;;
5785;SDS011;2919;48.630;9.000;2023-07-24T14:55:08;3.00;;;1.90;;
5785;SDS011;2919;48.630;9.000;2023-07-24T14:57:35;4.57;;;2.07;;
5785;SDS011;2919;48.630;9.000;2023-07-24T15:00:00;3.20;;;2.00;;
5785;SDS011;2919;48.630;9.000;2023-07-24T15:02:26;4.23;;;2.40;;
5785;SDS011;2919;48.630;9.000;2023-07-24T15:04:52;4.33;;;2.60;;
5785;SDS011;2919;48.630;9.000;2023-07-24T15:07:17;5.23;;;2.07;;
5785;SDS011;2919;48.630;9.000;2023-07-24T15:09:43;3.40;;;1.87;;
5785;SDS011;2919;48.630;9.000;2023-07-24T15:12:09;3.40;;;2.03;;
5785;SDS011;2919;48.630;9.000;2023-07-24T15:14:34;6.90;;;1.60;;
5785;SDS011;2919;48.630;9.000;2023-07-24T15:17:00;5.03;;;2.00;;
5785;SDS011;2919;48.630;9.000;2023-07-24T15:19:26;6.33;;;2.17;;
5785;SDS011;2919;48.630;9.000;2023-07-24T15:21:51;3.53;;;1.83;;
5785;SDS011;2919;48.630;9.000;2023-07-24T15:24:17;8.13;;;3.17;;
5785;SDS011;2919;48.630;9.000;2023-07-24T15:26:46;8.07;;;2.57;;